Dirección General De Aeronáutica Civil

Dirección Meteorológica de Chile - Servicios Climáticos

Informe General de Control de Calidad de la Estación

Listado de niveles de control de calidad para algunos parámetros
Estación Colina Base Aérea (330903)
Fecha de Revisión de los datos :

Elementos

Registros Niveles de Control Total
Nivel 0 Nivel 1 Nivel 2 Nivel 3 Errores Porcentaje
01 Temperatura del Aire Seco 10.369 0 . 41 0.40 % 0 . 0 . 41 0.40 %
02 Temperatura de Rocío 10.240 0 . 0 . 0 . 0 . 0 0.00 %
03 Humedad Relativa del Aire 9.950 0 . 0 . 0 . 0 . 0 0.00 %
04 Temperatura Máxima PM 732 0 . 0 . 49 6.69 % 0 . 49 6.69 %
05 Temperatura Mínima AM 729 0 . 0 . 8 1.10 % 0 . 8 1.10 %
06 Viento a 10 m. de Altura 11.058 1 0.01 % 2 0.02 % 5 0.05 % 0 . 8 0.07 %
07 Agua Caida, Acumulada 6 Horas 1.462 0 . 0 . 0 . 0 . 0 0.00 %
08 Presión Atm. a Nivel Medio del Mar (QFF) 10.380 0 . 0 . 0 . 0 . 0 0.00 %
09 Tiempo Pasado Sinóptico 3.662 0 . 0 . 0 . 0 . 0 0.00 %
10 Tiempo Presente Sinóptico 11.058 0 . 3 0.03 % 0 . 0 . 3 0.03 %

Totales

69.640 . 0.0014 % . 0.0661 % . 0.0890 % . 0.0000 % 109 0.1565 %

Detalle de Errores Encontrados

Nivel Fecha del Dato Descripción Información Error Fecha Ingreso
0 1953-05-28 09:00:00 ff (Intensidad del Viento) debe ser numerico, entre 0 y 70 kt. 120 2014-02-10 19:51:00
Errores del Nivel 1
Nivel Fecha del Dato Descripción Información Error Fecha Ingreso
1 1952-04-28 11:00:00 Ts debe ser mayor o igual a Td Ts=2.7 - Td=3.0 2014-10-03 13:14:00
1 1952-04-28 12:00:00 Ts debe ser mayor o igual a Td Ts=2.5 - Td=3.0 2014-10-03 13:14:00
1 1952-05-27 12:00:00 Ts debe ser mayor o igual a Td Ts=5.8 - Td=6.0 2014-10-06 15:32:00
1 1952-05-27 13:00:00 HR (Humedad Relativa) es igual a 100% y Ts <> Td 5.4 - 5.0 2014-10-06 15:32:00
1 1952-05-27 14:00:00 Ts debe ser mayor o igual a Td Ts=5.9 - Td=6.0 2014-10-06 15:32:00
1 1952-05-27 15:00:00 Ts debe ser mayor o igual a Td Ts=6.7 - Td=7.0 2014-10-06 15:32:00
1 1952-05-28 12:00:00 Ts debe ser mayor o igual a Td Ts=7.6 - Td=8.0 2014-10-06 15:38:00
1 1952-05-28 13:00:00 Ts debe ser mayor o igual a Td Ts=7.7 - Td=8.0 2014-10-06 15:38:00
1 1952-05-28 15:00:00 Ts debe ser mayor o igual a Td Ts=8.7 - Td=9.0 2014-10-06 15:38:00
1 1952-06-01 13:00:00 Ts debe ser mayor o igual a Td Ts=6.7 - Td=7.0 2014-10-06 16:27:00
1 1952-06-02 13:00:00 Ts debe ser mayor o igual a Td Ts=3.8 - Td=4.0 2014-10-06 17:33:00
1 1952-06-13 16:00:00 Ts debe ser mayor o igual a Td Ts=7.6 - Td=8.0 2014-10-06 20:11:00
1 1952-06-14 10:00:00 Ts debe ser mayor o igual a Td Ts=4.8 - Td=5.0 2014-10-06 20:21:00
1 1952-06-16 14:00:00 Ts debe ser mayor o igual a Td Ts=1.5 - Td=2.0 2014-10-07 12:41:00
1 1952-06-16 14:00:00 HR (Humedad Relativa) es igual a 100% y Ts <> Td 1.5 - 2.0 2014-10-07 12:41:00
1 1952-07-03 12:00:00 HR (Humedad Relativa) es igual a 100% y Ts <> Td 1.2 - 1.0 2014-10-07 19:55:00
1 1952-07-06 13:00:00 Ts debe ser mayor o igual a Td Ts=5.5 - Td=6.0 2014-10-08 12:34:00
1 1952-07-20 11:00:00 Ts debe ser mayor o igual a Td Ts=6.8 - Td=7.0 2014-10-09 14:15:00
1 1952-07-20 14:00:00 Ts debe ser mayor o igual a Td Ts=5.5 - Td=6.0 2014-10-09 14:15:00
1 1952-07-25 13:00:00 Ts debe ser mayor o igual a Td Ts=4.9 - Td=5.0 2014-10-09 15:59:00
1 1952-07-25 16:00:00 Ts debe ser mayor o igual a Td Ts=7.5 - Td=8.0 2014-10-09 15:59:00
1 1952-07-26 12:00:00 Ts debe ser mayor o igual a Td Ts=6.8 - Td=7.0 2014-10-09 16:07:00
1 1952-07-26 13:00:00 Ts debe ser mayor o igual a Td Ts=6.9 - Td=7.0 2014-10-09 16:07:00
1 1952-07-26 15:00:00 Ts debe ser mayor o igual a Td Ts=7.5 - Td=8.0 2014-10-09 16:07:00
1 1952-07-26 19:00:00 Ts debe ser mayor o igual a Td Ts=9.7 - Td=10.0 2014-10-09 16:07:00
1 1952-07-26 20:00:00 Ts debe ser mayor o igual a Td Ts=9.7 - Td=10.0 2014-10-09 16:07:00
1 1952-07-26 21:00:00 Ts debe ser mayor o igual a Td Ts=9.6 - Td=10.0 2014-10-09 16:07:00
1 1952-07-26 22:00:00 Ts debe ser mayor o igual a Td Ts=9.7 - Td=10.0 2014-10-09 16:07:00
1 1952-07-26 23:00:00 Ts debe ser mayor o igual a Td Ts=9.5 - Td=10.0 2014-10-09 16:07:00
1 1952-07-28 21:00:00 Ts debe ser mayor o igual a Td Ts=12.1 - Td=12.7 2014-10-09 18:04:00
1 1952-08-10 12:00:00 Ts debe ser mayor o igual a Td Ts=2.8 - Td=3.0 2014-10-10 14:40:00
1 1952-08-11 10:00:00 Ts debe ser mayor o igual a Td Ts=3.9 - Td=4.0 2014-10-10 15:49:00
1 1952-08-12 14:00:00 Ts debe ser mayor o igual a Td Ts=6.8 - Td=7.0 2014-10-10 15:56:00
1 1952-08-15 09:00:00 Ts debe ser mayor o igual a Td Ts=4.8 - Td=5.0 2014-10-10 17:57:00
1 1952-08-15 13:00:00 Ts debe ser mayor o igual a Td Ts=5.5 - Td=6.0 2014-10-10 17:57:00
1 1952-09-22 12:00:00 Ts debe ser mayor o igual a Td Ts=8.8 - Td=9.0 2014-10-14 14:42:00
1 1952-09-23 11:00:00 Ts debe ser mayor o igual a Td Ts=9.8 - Td=10.0 2014-10-14 14:51:00
1 1952-09-23 13:00:00 Ts debe ser mayor o igual a Td Ts=9.5 - Td=10.0 2014-10-14 14:51:00
1 1952-09-24 11:00:00 Ts debe ser mayor o igual a Td Ts=11.8 - Td=12.0 2014-10-14 15:20:00
1 1952-09-24 12:00:00 Ts debe ser mayor o igual a Td Ts=10.6 - Td=11.0 2014-10-14 15:20:00
1 1952-09-24 13:00:00 Ts debe ser mayor o igual a Td Ts=10.6 - Td=11.0 2014-10-14 15:20:00
1 1952-07-11 18:00:00 (ts - td > 5.0) y ((ww >= 40 y ww <= 49)) 40 2014-10-08 14:48:00
1 1952-07-11 19:00:00 (ts - td > 5.0) y ((ww >= 40 y ww <= 49)) 40 2014-10-08 14:48:00
1 1952-07-11 21:00:00 (ts - td > 5.0) y ((ww >= 40 y ww <= 49)) 40 2014-10-08 14:48:00
1 1953-07-25 15:00:00 Viento calma fue mal ingresado. dd = 90 - ff = 0 2014-02-13 15:57:00
1 1953-07-25 16:00:00 Viento calma fue mal ingresado. dd = 0 - ff = 6 2014-02-13 15:58:00
Errores del Nivel 46
Nivel Fecha del Dato Descripción Información Error Fecha Ingreso
2 1952-05-12 12:00:00 Variación horaria de Intensidad del viento fuera de rango (1 hora Antes) 40 - 0 2014-10-03 16:20:00
2 1953-05-28 10:00:00 Variación horaria de Intensidad del viento fuera de rango (1 hora Antes) 0 - 120 2014-02-10 19:52:00
2 1953-05-28 12:00:00 Variación Tri-horaria de Intensidad del viento fuera de rango (3 hora Antes) 0 - 120 2014-02-10 19:52:00
2 1953-07-28 20:00:00 Variación horaria de Intensidad del viento fuera de rango (1 hora Antes) 64 - 0 2014-02-13 17:48:00
2 1953-07-28 21:00:00 Variación horaria de Intensidad del viento fuera de rango (1 hora Antes) 6 - 64 2014-02-13 17:48:00
2 1952-01-23 00:00:00 Temperatura 35.0 del 22-01-1952 19:00, Mayor que la Máxima 34.5 23-01-1952 00:00 35.0 -- 34.5 2014-10-07 15:50:00
2 1952-05-01 00:00:00 Temperatura 23.4 del 30-04-1952 20:00, Mayor que la Máxima 22.9 01-05-1952 00:00 23.4 -- 22.9 2014-10-07 17:58:00
2 1952-06-25 00:00:00 Temperatura 15.1 del 24-06-1952 19:00, Mayor que la Máxima 15.0 25-06-1952 00:00 15.1 -- 15.0 2014-10-07 18:22:00
2 1952-06-26 00:00:00 Temperatura 11.8 del 25-06-1952 16:00, Mayor que la Máxima 11.2 26-06-1952 00:00 11.8 -- 11.2 2014-10-07 18:22:00
2 1952-07-03 00:00:00 Temperatura 13.3 del 02-07-1952 20:00, Mayor que la Máxima 13.1 03-07-1952 00:00 13.3 -- 13.1 2014-10-17 16:08:00
2 1952-07-17 00:00:00 Temperatura 14.2 del 16-07-1952 20:00, Mayor que la Máxima 13.8 17-07-1952 00:00 14.2 -- 13.8 2014-10-17 16:08:00
2 1952-08-04 00:00:00 Temperatura 16.5 del 03-08-1952 20:00, Mayor que la Máxima 16.2 04-08-1952 00:00 16.5 -- 16.2 2014-10-17 16:24:00
2 1952-08-15 00:00:00 Temperatura 22.1 del 14-08-1952 20:00, Mayor que la Máxima 19.6 15-08-1952 00:00 22.1 -- 19.6 2014-10-17 16:24:00
2 1952-08-31 00:00:00 Temperatura 21.3 del 30-08-1952 20:00, Mayor que la Máxima 21.2 31-08-1952 00:00 21.3 -- 21.2 2014-10-17 16:24:00
2 1952-09-01 00:00:00 Temperatura 18.0 del 31-08-1952 18:00, Mayor que la Máxima 16.7 01-09-1952 00:00 18.0 -- 16.7 2014-10-17 16:24:00
2 1952-09-11 00:00:00 Temperatura 21.7 del 10-09-1952 18:00, Mayor que la Máxima 19.6 11-09-1952 00:00 21.7 -- 19.6 2014-10-17 18:13:00
2 1952-09-16 00:00:00 Temperatura 19.2 del 15-09-1952 19:00, Mayor que la Máxima 19.0 16-09-1952 00:00 19.2 -- 19.0 2014-10-17 18:13:00
2 1952-10-13 00:00:00 Temperatura 22.2 del 12-10-1952 21:00, Mayor que la Máxima 21.0 13-10-1952 00:00 22.2 -- 21.0 2014-10-17 19:08:00
2 1952-10-17 00:00:00 Temperatura 17.3 del 16-10-1952 20:00, Mayor que la Máxima 16.2 17-10-1952 00:00 17.3 -- 16.2 2014-10-17 19:08:00
2 1952-10-24 00:00:00 Temperatura 27.7 del 23-10-1952 20:00, Mayor que la Máxima 26.6 24-10-1952 00:00 27.7 -- 26.6 2014-10-17 19:09:00
2 1952-10-25 00:00:00 Temperatura 30.2 del 24-10-1952 20:00, Mayor que la Máxima 29.3 25-10-1952 00:00 30.2 -- 29.3 2014-10-17 19:09:00
2 1952-10-29 00:00:00 Temperatura 22.8 del 28-10-1952 17:00, Mayor que la Máxima 20.8 29-10-1952 00:00 22.8 -- 20.8 2014-10-17 19:09:00
2 1953-03-04 00:00:00 Temperatura 28.2 del 03-03-1953 21:00, Mayor que la Máxima 28.0 04-03-1953 00:00 28.2 -- 28.0 2014-02-12 15:03:00
2 1953-03-12 00:00:00 Temperatura 29.4 del 11-03-1953 19:00, Mayor que la Máxima 27.9 12-03-1953 00:00 29.4 -- 27.9 2014-02-12 15:05:00
2 1953-03-15 00:00:00 Temperatura 21.0 del 14-03-1953 20:00, Mayor que la Máxima 20.0 15-03-1953 00:00 21.0 -- 20.0 2014-02-12 15:06:00
2 1953-03-20 00:00:00 Temperatura 29.2 del 19-03-1953 21:00, Mayor que la Máxima 28.6 20-03-1953 00:00 29.2 -- 28.6 2014-02-12 15:07:00
2 1953-03-24 00:00:00 Temperatura 29.2 del 23-03-1953 21:00, Mayor que la Máxima 29.1 24-03-1953 00:00 29.2 -- 29.1 2014-02-12 15:08:00
2 1953-03-28 00:00:00 Temperatura 30.7 del 27-03-1953 20:00, Mayor que la Máxima 28.3 28-03-1953 00:00 30.7 -- 28.3 2014-02-12 15:09:00
2 1953-04-01 00:00:00 Temperatura 31.6 del 31-03-1953 20:00, Mayor que la Máxima 28.3 01-04-1953 00:00 31.6 -- 28.3 2014-02-12 15:10:00
2 1953-06-18 00:00:00 Temperatura 10.4 del 17-06-1953 18:00, Mayor que la Máxima 10.3 18-06-1953 00:00 10.4 -- 10.3 2014-02-12 17:20:00
2 1953-06-27 00:00:00 Temperatura 13.8 del 26-06-1953 21:00, Mayor que la Máxima 13.0 27-06-1953 00:00 13.8 -- 13.0 2014-02-12 17:22:00
2 1953-07-13 00:00:00 Temperatura 12.2 del 12-07-1953 20:00, Mayor que la Máxima 11.6 13-07-1953 00:00 12.2 -- 11.6 2014-02-20 20:11:00
2 1953-07-20 00:00:00 Temperatura 13.7 del 19-07-1953 21:00, Mayor que la Máxima 13.0 20-07-1953 00:00 13.7 -- 13.0 2014-02-20 20:13:00
2 1953-07-21 00:00:00 Temperatura 16.8 del 20-07-1953 20:00, Mayor que la Máxima 16.4 21-07-1953 00:00 16.8 -- 16.4 2014-02-20 20:13:00
2 1953-08-19 00:00:00 Temperatura 11.7 del 18-08-1953 20:00, Mayor que la Máxima 11.0 19-08-1953 00:00 11.7 -- 11.0 2014-02-21 14:12:00
2 1953-08-26 00:00:00 Temperatura 16.7 del 25-08-1953 20:00, Mayor que la Máxima 16.6 26-08-1953 00:00 16.7 -- 16.6 2014-02-21 14:13:00
2 1953-09-01 00:00:00 Temperatura 19.7 del 31-08-1953 18:00, Mayor que la Máxima 19.2 01-09-1953 00:00 19.7 -- 19.2 2014-02-21 14:16:00
2 1953-09-23 00:00:00 Temperatura 12.0 del 22-09-1953 17:00, Mayor que la Máxima 11.9 23-09-1953 00:00 12.0 -- 11.9 2014-02-21 15:09:00
2 1953-10-21 00:00:00 Temperatura 27.4 del 20-10-1953 20:00, Mayor que la Máxima 27.1 21-10-1953 00:00 27.4 -- 27.1 2014-02-24 12:40:00
2 1953-10-22 00:00:00 Temperatura 17.8 del 21-10-1953 20:00, Mayor que la Máxima 17.6 22-10-1953 00:00 17.8 -- 17.6 2014-02-24 12:40:00
2 1953-10-23 00:00:00 Temperatura 15.0 del 22-10-1953 20:00, Mayor que la Máxima 14.9 23-10-1953 00:00 15.0 -- 14.9 2014-02-24 12:40:00
2 1953-10-30 00:00:00 Temperatura 24.0 del 29-10-1953 19:00, Mayor que la Máxima 22.4 30-10-1953 00:00 24.0 -- 22.4 2014-02-24 12:42:00
2 1953-10-31 00:00:00 Temperatura 20.0 del 30-10-1953 19:00, Mayor que la Máxima 19.9 31-10-1953 00:00 20.0 -- 19.9 2014-02-24 12:42:00
2 1953-11-15 00:00:00 Temperatura 24.1 del 14-11-1953 19:00, Mayor que la Máxima 23.9 15-11-1953 00:00 24.1 -- 23.9 2014-02-24 13:19:00
2 1953-11-16 00:00:00 Temperatura 24.3 del 15-11-1953 20:00, Mayor que la Máxima 24.2 16-11-1953 00:00 24.3 -- 24.2 2014-02-24 13:20:00
2 1953-11-20 00:00:00 Temperatura 26.8 del 19-11-1953 20:00, Mayor que la Máxima 26.3 20-11-1953 00:00 26.8 -- 26.3 2014-02-24 13:21:00
2 1953-12-02 00:00:00 Temperatura 25.1 del 01-12-1953 19:00, Mayor que la Máxima 24.6 02-12-1953 00:00 25.1 -- 24.6 2014-02-24 14:10:00
2 1953-12-09 00:00:00 Temperatura 25.2 del 08-12-1953 20:00, Mayor que la Máxima 25.1 09-12-1953 00:00 25.2 -- 25.1 2014-02-24 14:13:00
2 1953-12-10 00:00:00 Temperatura 29.0 del 09-12-1953 19:00, Mayor que la Máxima 28.3 10-12-1953 00:00 29.0 -- 28.3 2014-02-24 14:14:00
2 1953-12-13 00:00:00 Temperatura 27.9 del 12-12-1953 19:00, Mayor que la Máxima 27.0 13-12-1953 00:00 27.9 -- 27.0 2014-02-24 14:15:00
2 1953-12-18 00:00:00 Temperatura 30.6 del 17-12-1953 20:00, Mayor que la Máxima 30.0 18-12-1953 00:00 30.6 -- 30.0 2014-02-24 14:17:00
2 1953-12-21 00:00:00 Temperatura 26.7 del 20-12-1953 20:00, Mayor que la Máxima 26.6 21-12-1953 00:00 26.7 -- 26.6 2014-02-24 14:17:00
2 1953-12-26 00:00:00 Temperatura 25.0 del 25-12-1953 21:00, Mayor que la Máxima 24.0 26-12-1953 00:00 25.0 -- 24.0 2014-02-24 14:19:00
2 1953-12-30 00:00:00 Temperatura 27.9 del 29-12-1953 20:00, Mayor que la Máxima 27.7 30-12-1953 00:00 27.9 -- 27.7 2014-02-24 14:21:00
2 1952-01-04 12:00:00 Temperatura 10.0 del 04-01-1952 10:00, Menor que la Mínima 12.0 04-01-1952 12:00 10.0 -- 12.0 2014-09-26 13:13:00
2 1952-01-17 12:00:00 Temperatura 11.7 del 17-01-1952 10:00, Menor que la Mínima 12.5 17-01-1952 12:00 11.7 -- 12.5 2014-09-26 16:47:00
2 1952-01-19 12:00:00 Temperatura 11.0 del 19-01-1952 12:00, Menor que la Mínima 13.6 19-01-1952 12:00 11.0 -- 13.6 2014-09-26 18:34:00
2 1952-01-30 12:00:00 Temperatura 10.8 del 30-01-1952 11:00, Menor que la Mínima 11.0 30-01-1952 12:00 10.8 -- 11.0 2014-09-29 15:13:00
2 1952-02-04 12:00:00 Temperatura 11.7 del 04-02-1952 10:00, Menor que la Mínima 13.4 04-02-1952 12:00 11.7 -- 13.4 2014-09-29 18:15:00
2 1952-06-13 12:00:00 Temperatura 4.4 del 13-06-1952 11:00, Menor que la Mínima 4.6 13-06-1952 12:00 4.4 -- 4.6 2014-10-06 20:11:00
2 1952-06-28 12:00:00 Temperatura -1.5 del 28-06-1952 12:00, Menor que la Mínima 2.0 28-06-1952 12:00 -1.5 -- 2.0 2014-10-07 15:07:00
2 1952-07-22 12:00:00 Temperatura -0.2 del 22-07-1952 12:00, Menor que la Mínima 1.3 22-07-1952 12:00 -0.2 -- 1.3 2014-10-09 14:56:00
Errores del Nivel 62
Informe generado el 05-03-2024 10:38
Requerimiento: RE6001